Aviation Digital Data Service (ADDS)

Output produced by METARs form (1951 UTC 21 September 2021)
found at http://aviationweather.gov/metar/data/
 
TAF EPDA 211700Z 2118/2203 VRB03KT 9999 BKN040 
     TEMPO 2120/2203 5000 RA BR BKN020 
     PROB30 
     TEMPO 2120/2203 3000 RADZ BR BKN004 BKN010